Flight Track Log - Related Links

Times and Time Zones

All times are in EDT time to prevent confusion due to time zone crossing. See the UAL4553 flight status page for this flight to view local times or setup timezone preferences in your user account.

Time Position Orientation Groundspeed Altitude Reporting Facility
EDT Latitude Longitude Course Direction KTS MPH feet Rate Location/Type
Thu 01:17:15 PM 39.3333 -94.7167 85° East 163 188 1,900  Level Kansas TRACON
Thu 01:17:50 PM 39.3478 -94.7019 38° Northeast 161 185 2,700 1,592 Climbing Kansas Center
Thu 01:18:53 PM 39.4003 -94.6550 35° Northeast 208 239 4,500 1,824 Climbing Kansas Center
Thu 01:19:55 PM 39.4117 -94.5636 81° East 255 293 6,500 2,081 Climbing Kansas Center
Thu 01:20:00 PM 39.3535 -94.1757 80° East  Level FlightAware
Thu 01:20:57 PM 39.4075 -94.4550 93° East 278 320 8,800  Level Kansas Center
Thu 01:21:00 PM 39.3731 -94.0278 80° East  Level FlightAware
Thu 01:21:59 PM 39.4031 -94.3483 93° East 294 338 10,100  Level Kansas Center
Thu 01:22:00 PM 39.3872 -93.8792 85° East  Level FlightAware
Thu 01:23:01 PM 39.3969 -94.2111 93° East 351 404 11,100  Level Kansas Center
Thu 01:24:03 PM 39.3911 -94.0814 93° East 359 413 12,700 1,452 Climbing Kansas Center
Thu 01:25:05 PM 39.3856 -93.9508 93° East 360 414 14,100 1,355 Climbing Kansas Center
Thu 01:26:07 PM 39.4050 -93.8075 80° East 374 430 15,500 1,306 Climbing Kansas Center
Thu 01:27:09 PM 39.4219 -93.6706 81° East 380 437 16,800 1,210 Climbing Kansas Center
Thu 01:28:11 PM 39.4372 -93.5356 82° East 382 440 18,000 968 Climbing Kansas Center
Thu 01:29:13 PM 39.4544 -93.3975 81° East 385 443 18,800 871 Climbing Kansas Center
Thu 01:30:15 PM 39.4717 -93.2550 81° East 394 453 19,800 919 Climbing Kansas Center
Thu 01:31:17 PM 39.4881 -93.1053 82° East 409 471 20,700 968 Climbing Kansas Center
Thu 01:32:19 PM 39.5106 -92.9200 81° East 425 489 21,800 919 Climbing Kansas Center
Thu 01:33:21 PM 39.5286 -92.7633 81° East 439 505 22,600 816 Climbing Kansas Center
Thu 01:34:24 PM 39.5478 -92.6025 81° East 451 519 23,500 864 Climbing Kansas Center
Thu 01:35:26 PM 39.5653 -92.4406 82° East 455 524 24,400 919 Climbing Kansas Center
Thu 01:36:28 PM 39.5864 -92.2458 82° East 456 525 25,400 919 Climbing Kansas Center
Thu 01:37:30 PM 39.6042 -92.0850 82° East 457 526 26,300 823 Climbing Kansas Center
Thu 01:38:32 PM 39.6214 -91.9239 82° East 457 526 27,100 823 Climbing Kansas Center
Thu 01:39:34 PM 39.6383 -91.7636 82° East 457 526 28,000 919 Climbing Kansas Center
Thu 01:40:36 PM 39.6553 -91.6058 82° East 449 517 29,000 1,065 Climbing Kansas Center
Thu 01:41:38 PM 39.6750 -91.4169 82° East 449 517 30,200 1,065 Climbing Kansas Center
Thu 01:42:40 PM 39.6903 -91.2717 82° East 449 517 31,200 968 Climbing Kansas Center
Thu 01:43:42 PM 39.7061 -91.1114 83° East 449 517 32,200 1,113 Climbing Kansas Center
Thu 01:44:44 PM 39.7258 -90.9192 82° East 449 517 33,500 1,161 Climbing Kansas Center
Thu 01:45:46 PM 39.7378 -90.7575 84° East 449 517 34,600 720 Climbing Kansas Center
Thu 01:46:49 PM 39.7433 -90.5964 87° East 448 516 35,000 192 Climbing Kansas Center
Thu 01:47:51 PM 39.7494 -90.4208 87° East 451 519 35,000  Level Kansas Center
Thu 01:48:53 PM 39.7553 -90.2456 87° East 473 544 35,000  Level Kansas Center
Thu 01:49:55 PM 39.7606 -90.0664 88° East 490 564 35,000  Level Kansas Center
Thu 01:50:57 PM 39.7667 -89.8850 87° East 497 572 35,000  Level Kansas Center
Thu 01:51:59 PM 39.7711 -89.7067 88° East 498 573 35,000  Level Kansas Center
Thu 01:53:01 PM 39.7767 -89.4933 88° East 497 572 35,000  Level Kansas Center
Thu 01:54:03 PM 39.7808 -89.3144 88° East 497 572 35,000  Level Kansas Center
Thu 01:55:05 PM 39.7858 -89.1358 88° East 497 572 35,000  Level Kansas Center
Thu 01:56:07 PM 39.7892 -88.9561 89° East 497 572 35,000  Level Kansas Center
Thu 01:57:09 PM 39.7928 -88.7761 88° East 498 573 35,000  Level Kansas Center
Thu 01:58:12 PM 39.7964 -88.5606 89° East 498 573 35,000  Level Kansas Center
Thu 01:59:14 PM 39.8003 -88.3828 88° East 498 573 35,000  Level Kansas Center
Thu 02:00:16 PM 39.8025 -88.2025 89° East 498 573 35,000  Level Kansas Center
Thu 02:01:19 PM 39.8050 -88.0231 89° East 497 572 35,000  Level Kansas Center
Thu 02:02:21 PM 39.8050 -87.8414 90° East 497 572 35,000  Level Kansas Center
Thu 02:03:23 PM 39.8081 -87.6219 89° East 498 573 35,000  Level Kansas Center
Thu 02:04:31 PM 39.8108 -87.4164 89° East 504 580 35,000  Level Indianapolis Center
Thu 02:05:33 PM 39.8128 -87.2353 89° East 504 580 35,000  Level Indianapolis Center
Thu 02:06:35 PM 39.8131 -87.0542 90° East 504 580 35,000  Level Indianapolis Center
Thu 02:07:37 PM 39.8139 -86.8753 90° East 501 577 35,000  Level Indianapolis Center
Thu 02:08:39 PM 39.8142 -86.6961 90° East 501 577 35,000  Level Indianapolis Center
Thu 02:09:41 PM 39.8150 -86.5192 90° East 495 570 35,000  Level Indianapolis Center
Thu 02:10:43 PM 39.8261 -86.3175 86° East 499 574 35,000  Level Indianapolis Center
Thu 02:11:45 PM 39.8594 -86.1594 75° East 501 577 35,000  Level Indianapolis Center
Thu 02:12:47 PM 39.9033 -85.9514 75° East 499 574 35,000  Level Indianapolis Center
Thu 02:13:49 PM 39.9406 -85.7775 74° East 498 573 35,000  Level Indianapolis Center
Thu 02:14:51 PM 39.9761 -85.6044 75° East 498 573 35,000  Level Indianapolis Center
Thu 02:15:53 PM 40.0125 -85.4311 75° East 498 573 35,000  Level Indianapolis Center
Thu 02:16:54 PM 40.0472 -85.2581 75° East 498 573 35,000  Level Indianapolis Center
Thu 02:17:56 PM 40.0819 -85.0861 75° East 495 570 35,000  Level Indianapolis Center
Thu 02:18:58 PM 40.1219 -84.8908 75° East 495 570 35,000  Level Indianapolis Center
Thu 02:20:00 PM 40.1558 -84.7175 76° East 495 570 35,000  Level Indianapolis Center
Thu 02:21:02 PM 40.1900 -84.5433 76° East 495 570 35,000  Level Indianapolis Center
Thu 02:22:04 PM 40.2233 -84.3714 76° East 493 567 35,000  Level Indianapolis Center
Thu 02:23:06 PM 40.2583 -84.1964 75° East 493 567 35,000  Level Indianapolis Center
Thu 02:24:09 PM 40.3106 -83.9942 71° East 493 567 35,000  Level Indianapolis Center
Thu 02:25:11 PM 40.3817 -83.8406 59° Northeast 491 565 35,000  Level Indianapolis Center
Thu 02:26:13 PM 40.4519 -83.6883 59° Northeast 490 564 35,000  Level Indianapolis Center
Thu 02:27:15 PM 40.5211 -83.5339 59° Northeast 489 563 35,000  Level Indianapolis Center
Thu 02:28:17 PM 40.5919 -83.3800 59° Northeast 489 563 35,000  Level Indianapolis Center
Thu 02:29:17 PM 40.6611 -83.2283 59° Northeast 487 560 35,000  Level Cleveland Center
Thu 02:30:19 PM 40.7303 -83.0728 60° Northeast 487 560 35,000  Level Cleveland Center
Thu 02:31:21 PM 40.7994 -82.9172 60° Northeast 488 562 35,000  Level Cleveland Center
Thu 02:32:23 PM 40.8844 -82.7269 59° Northeast 488 562 35,000  Level Cleveland Center
Thu 02:33:25 PM 40.9531 -82.5697 60° Northeast 488 562 35,000  Level Cleveland Center
Thu 02:34:27 PM 41.0217 -82.4172 59° Northeast 483 556 35,000  Level Cleveland Center
Thu 02:35:29 PM 41.0883 -82.2625 60° Northeast 482 555 35,000  Level Cleveland Center
Thu 02:36:31 PM 41.1622 -82.0942 60° Northeast 486 559 35,000  Level Cleveland Center
Thu 02:37:34 PM 41.2292 -81.9397 60° Northeast 486 559 35,000  Level Cleveland Center
Thu 02:38:36 PM 41.2956 -81.7847 60° Northeast 483 556 35,000  Level Cleveland Center
Thu 02:39:38 PM 41.3625 -81.6300 60° Northeast 483 556 35,000  Level Cleveland Center
Thu 02:40:40 PM 41.4317 -81.4675 60° Northeast 483 556 35,000  Level Cleveland Center
Thu 02:41:42 PM 41.4978 -81.3111 61° Northeast 481 554 35,000  Level Cleveland Center
Thu 02:42:44 PM 41.5644 -81.1531 61° Northeast 482 555 35,000  Level Cleveland Center
Thu 02:43:46 PM 41.6419 -80.9686 61° Northeast 482 555 35,000  Level Cleveland Center
Thu 02:44:49 PM 41.7083 -80.8100 61° Northeast 483 556 35,000  Level Cleveland Center
Thu 02:45:51 PM 41.7747 -80.6511 61° Northeast 484 557 35,000  Level Cleveland Center
Thu 02:46:53 PM 41.7903 -80.4739 83° East 478 550 35,000  Level Cleveland Center
Thu 02:47:55 PM 41.7733 -80.2958 97° East 480 552 35,000  Level Cleveland Center
Thu 02:48:57 PM 41.7550 -80.1167 98° East 480 552 35,000  Level Cleveland Center
Thu 02:49:59 PM 41.7372 -79.9425 98° East 469 540 35,000  Level Cleveland Center
Thu 02:51:01 PM 41.7153 -79.7375 98° East 471 542 35,000  Level Cleveland Center
Thu 02:52:03 PM 41.6967 -79.5683 98° East 474 545 35,000  Level Cleveland Center
Thu 02:53:06 PM 41.6781 -79.3928 98° East 476 548 35,000  Level Cleveland Center
Thu 02:54:08 PM 41.6561 -79.1989 99° East 477 549 35,000  Level Cleveland Center
Thu 02:55:10 PM 41.6350 -79.0078 98° East 477 549 35,000  Level Cleveland Center
Thu 02:56:12 PM 41.6147 -78.8331 99° East 477 549 35,000  Level Cleveland Center
Thu 02:57:14 PM 41.5953 -78.6592 98° East 476 548 35,000 -145 Level Cleveland Center
Thu 02:58:16 PM 41.5747 -78.4856 99° East 476 548 34,700 -871 Descending Cleveland Center
Thu 02:59:18 PM 41.5547 -78.3125 99° East 475 547 33,200 -1,392 Descending Cleveland Center
Thu 03:00:21 PM 41.5331 -78.1367 99° East 477 549 31,800 -1,056 Descending Cleveland Center
Thu 03:01:23 PM 41.5067 -77.9267 99° East 479 551 31,000 -387 Descending Cleveland Center
Thu 03:02:25 PM 41.4822 -77.7550 101° East 477 549 31,000  Level Cleveland Center
Thu 03:03:27 PM 41.4581 -77.5828 101° East 477 549 31,000  Level Cleveland Center
Thu 03:04:29 PM 41.4328 -77.4094 101° East 477 549 31,000  Level Cleveland Center
Thu 03:05:31 PM 41.4081 -77.2369 101° East 477 549 31,000  Level Cleveland Center
Thu 03:06:33 PM 41.3817 -77.0636 101° East 477 549 31,000 -672 Level Cleveland Center
Thu 03:07:36 PM 41.3506 -76.8553 101° East 479 551 29,600 -1,776 Descending Cleveland Center
Thu 03:08:38 PM 41.3164 -76.6872 105° East 478 550 27,300 -2,468 Descending Cleveland Center
Thu 03:09:40 PM 41.2711 -76.5253 110° East 473 544 24,500 -2,661 Descending Cleveland Center
Thu 03:10:42 PM 41.2272 -76.3631 110° East 472 543 21,800 -2,512 Descending Cleveland Center
Thu 03:11:49 PM 41.1756 -76.1767 110° East 440 506 19,100 -1,890 Descending New Center
Thu 03:12:49 PM 41.1417 -76.0472 109° East 413 475 17,800 -1,700 Descending New Center
Thu 03:13:49 PM 41.0986 -75.8894 110° East 407 468 15,700 -1,900 Descending New Center
Thu 03:14:49 PM 41.0589 -75.7489 111° Southeast 407 468 14,000 -1,350 Descending New Center
Thu 03:15:49 PM 41.0228 -75.6142 110° East 391 450 13,000 -496 Descending New Center
Thu 03:16:50 PM 40.9900 -75.4992 111° Southeast 385 443 13,000 -500 Level New Center
Thu 03:17:49 PM 40.9514 -75.3647 111° Southeast 371 427 12,000 -1,261 Descending New Center
Thu 03:18:49 PM 40.9261 -75.2669 109° East 329 379 10,500 -1,550 Descending New Center
Thu 03:19:49 PM 40.8964 -75.1661 111° Southeast 304 350 8,900 -1,500 Descending New Center
Thu 03:20:49 PM 40.8669 -75.0625 111° Southeast 278 320 7,500 -950 Descending New Center
Thu 03:21:49 PM 40.8411 -74.9706 110° East 272 313 7,000 -250 Descending New Center
Thu 03:22:49 PM 40.8150 -74.8811 111° Southeast 267 307 7,000  Level New Center
Thu 03:23:49 PM 40.7908 -74.7947 110° East 267 307 7,000 -500 Level New Center
Thu 03:24:49 PM 40.7778 -74.6925 100° East 261 300 6,000 -500 Descending New Center
Thu 03:25:49 PM 40.8031 -74.6200 65° Northeast 248 285 6,000  Level New Center
Thu 03:26:49 PM 40.8811 -74.5914 15° North 224 258 6,000  Level New Center
Thu 03:27:49 PM 40.9481 -74.5814 North 244 281 6,000  Level New Center
Thu 03:28:49 PM 41.0261 -74.5528 15° North 261 300 6,000 -350 Level New Center
Thu 03:29:49 PM 41.0678 -74.4808 52° Northeast 240 276 5,300 -500 Descending New Center
Thu 03:30:49 PM 41.0744 -74.4014 84° East 211 243 5,000 -150 Descending New Center
Thu 03:31:49 PM 41.0439 -74.3144 115° Southeast 223 257 5,000  Level New Center
Thu 03:32:53 PM 41.0167 -74.2167 110° East 242 278 5,000 -48 Level New TRACON
Thu 03:33:53 PM 40.9833 -74.1500 124° Southeast 205 236 4,900 -476 Descending New TRACON
Thu 03:34:59 PM 40.9667 -74.0833 108° East 184 212 4,000 -857 Descending New TRACON
Thu 03:35:59 PM 40.9167 -74.0500 153° Southeast 189 217 3,100 -526 Descending New TRACON
Thu 03:36:53 PM 40.8667 -74.0667 194° South 181 208 3,000 -300 Descending New TRACON
Thu 03:37:59 PM 40.8167 -74.0833 194° South 183 211 2,500 -476 Descending New TRACON
Thu 03:38:59 PM 40.7667 -74.0833 180° South 173 199 2,000 -550 Descending New TRACON
Thu 03:39:59 PM 40.7333 -74.0833 180° South 148 170 1,400 -750 Descending New TRACON
Thu 03:40:59 PM 40.7000 -74.1167 217° Southwest 137 158 500 -900 Descending New TRACON

Login

Don't have an account? Register now (free) for customized features, flight alerts, and more!